Time;durP1;ratioP1;P1;durP2;ratioP2;P2;SDS_P1;SDS_P2;PMS_P1;PMS_P2;Temp;Humidity;BMP_temperature;BMP_pressure;BME280_temperature;BME280_humidity;BME280_pressure;Samples;Min_cycle;Max_cycle;Signal;HPM_P1;HPM_P2
2022/01/21 00:01:09;;;;;;;14.30;5.50;;;;;;;5.27;61.42;99787.97;5091449;28;20024;-50
2022/01/21 00:03:35;;;;;;;60.35;52.97;;;;;;;5.21;60.89;99785.88;5091345;28;20145;-51
2022/01/21 00:06:01;;;;;;;36.45;30.45;;;;;;;5.12;61.63;99776.31;5091372;28;20024;-50
2022/01/21 00:08:27;;;;;;;61.05;50.60;;;;;;;5.13;61.52;99780.56;5091350;28;20028;-50
2022/01/21 00:10:53;;;;;;;29.30;20.13;;;;;;;5.10;61.62;99775.63;5091590;28;20031;-51
2022/01/21 00:13:34;;;;;;;15.55;5.53;;;;;;;5.11;61.28;99772.06;5093739;28;20020;-48
2022/01/21 00:16:02;;;;;;;11.70;4.40;;;;;;;5.02;61.42;99755.50;5095024;28;20115;-47
2022/01/21 00:18:28;;;;;;;15.10;3.95;;;;;;;4.98;60.87;99756.75;5094890;28;20051;-47
2022/01/21 00:31:50;;;;;;;13.40;7.85;;;;;;;4.66;62.03;99767.41;5094816;28;20043;-47
2022/01/21 00:34:15;;;;;;;11.88;4.20;;;;;;;4.65;61.86;99770.94;5094651;28;20020;-47
2022/01/21 00:36:41;;;;;;;18.95;5.22;;;;;;;4.59;61.78;99767.97;5094324;28;20051;-49
2022/01/21 00:39:07;;;;;;;15.48;8.85;;;;;;;4.59;61.61;99767.97;5093197;28;20060;-47
2022/01/21 00:41:38;;;;;;;15.35;4.60;;;;;;;4.61;62.10;99770.44;5093153;28;20012;-48
2022/01/21 00:44:04;;;;;;;11.43;5.28;;;;;;;4.70;61.77;99761.81;5094489;28;20032;-47
2022/01/21 00:46:30;;;;;;;13.27;7.28;;;;;;;4.67;61.20;99775.09;5093061;28;20031;-48
2022/01/21 00:48:56;;;;;;;9.00;3.83;;;;;;;4.70;61.52;99767.00;5093139;28;20505;-48
2022/01/21 00:51:21;;;;;;;12.25;4.57;;;;;;;4.80;61.54;99769.59;5094324;28;20058;-48
2022/01/21 00:53:47;;;;;;;11.18;4.25;;;;;;;4.78;61.25;99767.13;5094601;28;20020;-48
2022/01/21 00:56:13;;;;;;;11.75;6.47;;;;;;;4.85;61.32;99762.22;5092904;28;20097;-47
2022/01/21 00:58:39;;;;;;;10.48;7.07;;;;;;;4.86;60.61;99774.25;5094088;28;20019;-48
2022/01/21 01:01:04;;;;;;;11.23;3.90;;;;;;;4.86;60.56;99771.66;5092851;28;20114;-50
2022/01/21 01:03:30;;;;;;;8.00;3.42;;;;;;;4.88;60.61;99754.16;5092728;28;20446;-49
2022/01/21 01:05:56;;;;;;;12.32;3.30;;;;;;;4.85;60.57;99757.03;5094027;28;20073;-48
2022/01/21 01:08:22;;;;;;;8.10;3.22;;;;;;;4.85;60.78;99753.59;5094005;28;20028;-48
2022/01/21 01:11:13;;;;;;;10.85;5.05;;;;;;;4.83;60.83;99758.94;5092603;28;20032;-48
2022/01/21 01:21:57;;;;;;;8.73;3.80;;;;;;;4.57;61.52;99763.84;5051402;28;20094;-48
2022/01/21 01:29:52;;;;;;;10.30;4.35;;;;;;;4.44;61.57;99758.88;5051227;28;20043;-47
2022/01/21 01:32:17;;;;;;;7.70;3.33;;;;;;;4.38;61.30;99767.22;5051126;28;20021;-47
2022/01/21 01:34:43;;;;;;;11.18;4.00;;;;;;;4.35;61.52;99777.91;5051020;28;20075;-47
2022/01/21 01:37:17;;;;;;;10.25;4.80;;;;;;;4.42;61.60;99771.19;5050827;28;20143;-48
2022/01/21 01:39:46;;;;;;;7.18;3.35;;;;;;;4.42;61.40;99763.41;5050914;28;20122;-48
2022/01/21 01:50:37;;;;;;;9.27;3.55;;;;;;;4.33;61.11;99772.84;5050804;28;20695;-47
2022/01/21 01:53:05;;;;;;;15.52;3.95;;;;;;;4.31;61.16;99764.34;5074968;28;20070;-47
2022/01/21 01:55:32;;;;;;;8.45;3.20;;;;;;;4.34;61.00;99768.44;5093086;28;20024;-47
2022/01/21 01:57:58;;;;;;;11.40;4.13;;;;;;;4.36;61.37;99762.16;5093033;28;20020;-48
2022/01/21 02:00:24;;;;;;;10.00;5.18;;;;;;;4.41;61.43;99769.56;5093016;28;20085;-48
2022/01/21 02:02:49;;;;;;;8.40;3.80;;;;;;;4.57;61.13;99767.28;5093057;28;20032;-48
2022/01/21 02:05:15;;;;;;;10.73;3.78;;;;;;;4.63;60.88;99765.06;5092995;28;20494;-48
2022/01/21 02:07:41;;;;;;;11.35;4.05;;;;;;;4.60;60.47;99763.56;5092908;28;20397;-47
2022/01/21 02:10:07;;;;;;;16.48;4.55;;;;;;;4.51;60.31;99772.19;5092810;28;20464;-49
2022/01/21 02:12:34;;;;;;;9.93;4.47;;;;;;;4.39;60.67;99777.50;5091485;28;20069;-47
2022/01/21 02:15:01;;;;;;;13.90;4.38;;;;;;;4.32;60.92;99768.56;5092756;28;20478;-47
2022/01/21 02:22:45;;;;;;;11.90;5.90;;;;;;;4.39;61.28;99768.88;5092697;28;20046;-48
2022/01/21 02:25:18;;;;;;;8.27;3.55;;;;;;;4.40;60.70;99768.72;5091604;28;20119;-47
2022/01/21 02:27:50;;;;;;;17.85;5.97;;;;;;;4.41;60.44;99785.16;5092574;28;20507;-47
2022/01/21 02:30:18;;;;;;;8.07;4.13;;;;;;;4.42;60.35;99778.19;5092521;28;20089;-47
2022/01/21 02:32:52;;;;;;;7.25;3.35;;;;;;;4.49;60.38;99774.09;5092450;28;20048;-47
2022/01/21 02:35:19;;;;;;;12.43;4.32;;;;;;;4.55;60.61;99760.56;5091932;28;20086;-49
2022/01/21 02:37:47;;;;;;;10.85;4.18;;;;;;;4.56;60.13;99752.63;5092380;28;20028;-47
2022/01/21 02:40:14;;;;;;;11.40;3.78;;;;;;;4.58;59.82;99761.09;5092194;28;20024;-48
2022/01/21 02:42:42;;;;;;;8.93;3.80;;;;;;;4.54;59.57;99759.72;5090929;28;20024;-49
2022/01/21 02:45:08;;;;;;;6.60;3.58;;;;;;;4.45;59.92;99757.94;5092180;28;20056;-47
2022/01/21 02:47:34;;;;;;;11.00;4.13;;;;;;;4.34;59.74;99752.84;5090884;28;20024;-47
2022/01/21 02:50:00;;;;;;;11.63;3.67;;;;;;;4.26;59.90;99752.69;5090828;28;20043;-48
2022/01/21 02:52:29;;;;;;;14.13;4.05;;;;;;;4.32;60.09;99750.38;5090799;28;20024;-48
2022/01/21 02:54:55;;;;;;;10.88;3.85;;;;;;;4.29;60.04;99745.47;5092092;28;20027;-48
2022/01/21 02:57:21;;;;;;;8.43;3.38;;;;;;;4.28;60.41;99736.00;5090773;28;20016;-46
2022/01/21 02:59:49;;;;;;;13.40;3.88;;;;;;;4.26;60.07;99732.72;5091983;28;20063;-47
2022/01/21 03:02:15;;;;;;;8.93;3.83;;;;;;;4.19;60.11;99737.66;5091967;28;20027;-47
2022/01/21 03:04:56;;;;;;;9.27;3.22;;;;;;;4.15;59.97;99733.69;5090691;28;20437;-47
2022/01/21 03:07:22;;;;;;;7.47;3.45;;;;;;;4.09;60.21;99731.59;5091904;28;20031;-48
2022/01/21 03:09:47;;;;;;;12.05;5.30;;;;;;;4.08;60.53;99737.75;5090655;28;20024;-47
2022/01/21 03:12:13;;;;;;;8.80;3.65;;;;;;;4.17;60.22;99726.56;5090577;28;20053;-47
2022/01/21 03:14:39;;;;;;;6.70;2.80;;;;;;;4.22;59.96;99728.75;5090568;28;20024;-48
2022/01/21 03:17:05;;;;;;;7.47;3.35;;;;;;;4.16;59.57;99714.53;5090525;28;20072;-48
2022/01/21 03:19:30;;;;;;;11.68;3.80;;;;;;;4.12;59.84;99720.94;5090416;28;20036;-47
2022/01/21 03:21:56;;;;;;;11.27;3.72;;;;;;;4.05;59.68;99709.44;5091822;28;20024;-46
2022/01/21 03:24:22;;;;;;;12.18;3.15;;;;;;;4.03;59.89;99713.16;5091794;28;20395;-48
2022/01/21 03:26:48;;;;;;;15.77;4.30;;;;;;;4.04;59.52;99715.59;5090426;28;20020;-46
2022/01/21 03:29:13;;;;;;;7.20;2.50;;;;;;;4.03;59.46;99713.16;5091759;28;20052;-47
2022/01/21 03:31:39;;;;;;;6.93;2.03;;;;;;;3.96;59.45;99712.84;5091700;28;20074;-47
2022/01/21 03:34:05;;;;;;;9.48;3.45;;;;;;;3.98;59.21;99706.56;5091652;28;20024;-47
2022/01/21 03:36:31;;;;;;;14.52;5.90;;;;;;;3.91;59.47;99712.44;5091435;28;20115;-48
2022/01/21 03:38:57;;;;;;;10.27;3.17;;;;;;;3.83;59.93;99713.06;5091567;28;20019;-48
2022/01/21 03:41:23;;;;;;;9.93;2.97;;;;;;;3.80;59.84;99706.38;5091534;28;20493;-48
2022/01/21 03:43:49;;;;;;;8.88;3.08;;;;;;;3.80;59.70;99703.78;5091605;28;20024;-47
2022/01/21 03:46:16;;;;;;;9.65;3.50;;;;;;;3.77;60.11;99698.84;5091522;28;20390;-47
2022/01/21 03:48:46;;;;;;;14.80;3.42;;;;;;;3.70;60.51;99694.28;5094774;28;20020;-49
2022/01/21 03:51:12;;;;;;;6.60;3.00;;;;;;;3.63;60.30;99698.38;5094208;28;20036;-47
2022/01/21 03:53:38;;;;;;;5.03;2.95;;;;;;;3.57;60.57;99681.56;5095510;28;20516;-49
2022/01/21 03:56:04;;;;;;;10.80;3.45;;;;;;;3.56;60.71;99690.28;5095431;28;20048;-48
2022/01/21 03:58:29;;;;;;;9.65;4.93;;;;;;;3.52;60.76;99683.69;5095266;28;20095;-47
2022/01/21 04:00:56;;;;;;;6.85;3.35;;;;;;;3.47;60.83;99706.66;5095370;28;20498;-49
2022/01/21 04:03:24;;;;;;;7.82;3.45;;;;;;;3.48;60.53;99705.69;5095280;28;20405;-49
2022/01/21 04:05:49;;;;;;;9.43;2.78;;;;;;;3.47;60.87;99701.44;5095202;28;20023;-47
2022/01/21 04:08:16;;;;;;;11.38;3.83;;;;;;;3.49;60.98;99713.34;5095133;28;20016;-47
2022/01/21 04:10:42;;;;;;;8.35;2.80;;;;;;;3.47;60.96;99706.66;5095162;28;20089;-47
2022/01/21 04:13:16;;;;;;;20.63;3.92;;;;;;;3.40;60.98;99703.72;5095145;28;20388;-47
2022/01/21 04:15:45;;;;;;;15.77;2.83;;;;;;;3.45;61.09;99705.94;5095070;28;20028;-49
2022/01/21 04:18:13;;;;;;;7.03;2.08;;;;;;;3.49;61.16;99691.75;5094957;28;20066;-49
2022/01/21 04:20:40;;;;;;;15.90;3.72;;;;;;;3.48;61.14;99709.13;5094994;28;20020;-48
2022/01/21 04:23:06;;;;;;;17.33;4.28;;;;;;;3.40;61.25;99716.69;5094927;28;20024;-47
2022/01/21 04:25:32;;;;;;;15.48;3.85;;;;;;;3.37;61.03;99715.19;5094831;28;20508;-49
2022/01/21 04:27:58;;;;;;;7.32;3.30;;;;;;;3.30;61.31;99689.88;5094868;28;20091;-46
2022/01/21 04:30:24;;;;;;;12.73;3.30;;;;;;;3.23;61.56;99692.19;5093435;28;20032;-48
2022/01/21 04:32:50;;;;;;;17.08;3.08;;;;;;;3.21;61.90;99707.03;5093440;28;20597;-49
2022/01/21 04:35:15;;;;;;;10.38;3.00;;;;;;;3.21;61.56;99701.84;5093340;28;20082;-48
2022/01/21 04:37:49;;;;;;;12.98;3.00;;;;;;;3.13;61.69;99714.66;5094361;28;20578;-47
2022/01/21 04:40:17;;;;;;;10.00;3.85;;;;;;;3.12;61.95;99718.16;5094513;28;20028;-47
2022/01/21 04:48:12;;;;;;;7.55;3.30;;;;;;;3.18;61.48;99718.50;5094483;28;20558;-47
2022/01/21 04:50:52;;;;;;;9.07;3.22;;;;;;;3.15;61.17;99729.13;5094355;28;20107;-47
2022/01/21 04:53:18;;;;;;;9.95;3.25;;;;;;;3.07;61.58;99728.94;5094402;28;20024;-47
2022/01/21 04:55:44;;;;;;;7.47;4.15;;;;;;;3.07;61.47;99726.34;5092921;28;20067;-47
2022/01/21 04:58:10;;;;;;;11.00;3.90;;;;;;;3.10;61.92;99720.06;5094062;28;20588;-47
2022/01/21 05:00:36;;;;;;;9.40;3.60;;;;;;;3.18;61.31;99721.09;5094217;28;20497;-47
2022/01/21 05:03:01;;;;;;;8.80;3.25;;;;;;;3.14;60.65;99731.84;5094143;28;20024;-47
2022/01/21 05:05:27;;;;;;;7.72;2.15;;;;;;;3.05;61.07;99730.84;5094124;28;20028;-47
2022/01/21 05:07:54;;;;;;;7.05;2.53;;;;;;;3.02;61.60;99725.06;5094047;28;20580;-48
2022/01/21 05:10:20;;;;;;;5.22;2.50;;;;;;;3.06;61.34;99723.88;5092611;28;20032;-47
2022/01/21 05:12:46;;;;;;;7.10;3.20;;;;;;;3.06;61.36;99731.66;5075831;28;20397;-47
2022/01/21 05:16:01;;;;;;;6.55;2.65;;;;;;;3.13;61.30;99732.81;5092559;28;20027;-48
2022/01/21 05:18:00;;;;;;;4.97;2.80;;;;;;;3.11;61.27;99737.28;5090653;28;20051;-47
2022/01/21 05:20:26;;;;;;;8.43;3.10;;;;;;;3.13;61.05;99746.59;5093703;28;20023;-47
2022/01/21 05:22:52;;;;;;;13.88;3.83;;;;;;;3.15;60.67;99744.69;5093747;28;20047;-48
2022/01/21 05:25:18;;;;;;;11.20;4.10;;;;;;;3.14;60.91;99765.56;5093686;28;20394;-47
2022/01/21 05:27:50;;;;;;;8.55;3.30;;;;;;;3.17;60.82;99757.53;5093667;28;20059;-49
2022/01/21 05:30:17;;;;;;;8.38;3.83;;;;;;;3.21;60.49;99769.31;5093623;28;20518;-48
2022/01/21 05:32:43;;;;;;;7.25;2.72;;;;;;;3.24;60.92;99763.03;5092257;28;20046;-48
2022/01/21 05:35:08;;;;;;;9.75;3.03;;;;;;;3.34;60.90;99756.97;5093484;28;20490;-47
2022/01/21 05:37:35;;;;;;;10.68;6.22;;;;;;;3.52;59.74;99761.56;5093252;28;20516;-46
2022/01/21 05:40:04;;;;;;;7.57;2.78;;;;;;;3.58;59.56;99755.84;5091975;28;20040;-47
2022/01/21 05:42:33;;;;;;;8.75;3.30;;;;;;;3.58;59.23;99748.91;5093420;28;20031;-47
2022/01/21 05:47:25;;;;;;;11.32;3.85;;;;;;;3.58;59.04;99750.66;5093283;28;20020;-48
2022/01/21 05:49:50;;;;;;;12.40;4.18;;;;;;;3.59;58.64;99750.53;5093505;28;20486;-48
2022/01/21 05:52:18;;;;;;;7.25;2.70;;;;;;;3.47;58.58;99748.16;5093186;28;20099;-46
2022/01/21 05:54:45;;;;;;;9.07;3.88;;;;;;;3.42;58.83;99748.56;5093198;28;20089;-48
2022/01/21 05:57:14;;;;;;;10.32;4.40;;;;;;;3.44;59.00;99754.44;5093304;28;20024;-47
2022/01/21 05:59:40;;;;;;;13.23;4.18;;;;;;;3.43;58.54;99747.59;5092992;28;20052;-47
2022/01/21 06:02:07;;;;;;;8.48;2.65;;;;;;;3.37;58.74;99746.31;5091643;28;20027;-47
2022/01/21 06:04:33;;;;;;;5.47;2.22;;;;;;;3.29;59.39;99748.75;5093007;28;20031;-47
2022/01/21 06:07:00;;;;;;;12.23;3.17;;;;;;;3.24;59.33;99748.31;5092995;28;20046;-46
2022/01/21 06:09:27;;;;;;;8.40;2.78;;;;;;;3.19;59.49;99750.44;5092695;28;20024;-48
2022/01/21 06:11:53;;;;;;;15.48;3.65;;;;;;;3.16;59.62;99750.72;5092550;28;20024;-48
2022/01/21 06:14:19;;;;;;;8.18;3.15;;;;;;;3.12;60.09;99738.91;5092772;28;20024;-48
2022/01/21 06:16:45;;;;;;;9.32;2.67;;;;;;;3.12;59.89;99747.53;5091445;28;20035;-47
2022/01/21 06:19:11;;;;;;;7.15;3.25;;;;;;;3.14;59.91;99755.19;5092597;28;20070;-47
2022/01/21 06:21:37;;;;;;;6.90;3.78;;;;;;;3.07;60.31;99746.28;5092700;28;20130;-46
2022/01/21 06:24:03;;;;;;;10.70;3.40;;;;;;;3.07;60.46;99751.47;5092637;28;20494;-48
2022/01/21 06:26:28;;;;;;;8.02;3.88;;;;;;;3.15;60.32;99754.25;5092552;28;20028;-46
2022/01/21 06:28:54;;;;;;;7.72;2.97;;;;;;;3.18;60.18;99749.63;5092555;28;20439;-46
2022/01/21 06:31:20;;;;;;;9.73;3.22;;;;;;;3.12;60.23;99746.69;5092444;28;20092;-47
2022/01/21 06:33:46;;;;;;;151.45;101.38;;;;;;;3.04;60.78;99743.91;5092437;28;20428;-48
2022/01/21 06:36:12;;;;;;;36.50;22.35;;;;;;;3.02;61.04;99751.84;5092140;28;20063;-48
2022/01/21 06:38:38;;;;;;;24.90;16.70;;;;;;;3.01;61.58;99757.97;5092292;28;20088;-47
2022/01/21 06:41:04;;;;;;;20.52;7.50;;;;;;;2.97;61.42;99769.53;5092273;28;20024;-46
2022/01/21 06:43:29;;;;;;;32.28;18.73;;;;;;;2.86;61.85;99765.22;5092290;28;20091;-49
2022/01/21 06:45:56;;;;;;;25.77;12.05;;;;;;;2.85;62.10;99783.50;5090912;28;20555;-49
2022/01/21 06:48:21;;;;;;;21.95;13.20;;;;;;;2.83;62.09;99791.38;5092251;28;20120;-50
2022/01/21 06:50:47;;;;;;;14.75;6.47;;;;;;;2.82;62.14;99794.09;5090905;28;20043;-48
2022/01/21 06:53:13;;;;;;;11.60;3.53;;;;;;;2.84;62.10;99787.00;5092175;28;20394;-46
2022/01/21 06:55:39;;;;;;;11.38;4.75;;;;;;;2.85;62.27;99799.06;5092415;28;20103;-47
2022/01/21 06:58:05;;;;;;;8.02;4.35;;;;;;;2.83;62.04;99812.13;5092112;28;20024;-47
2022/01/21 07:00:31;;;;;;;9.20;4.70;;;;;;;2.86;62.29;99814.50;5092032;28;20024;-46
2022/01/21 07:02:57;;;;;;;12.75;4.40;;;;;;;2.93;62.25;99815.63;5092027;28;20517;-46
2022/01/21 07:05:25;;;;;;;10.23;3.80;;;;;;;3.01;61.79;99802.06;5090658;28;20107;-46
2022/01/21 07:07:52;;;;;;;18.23;4.32;;;;;;;2.97;61.58;99811.03;5091953;28;20032;-47
2022/01/21 07:10:18;;;;;;;11.63;3.78;;;;;;;2.91;61.64;99824.47;5091890;28;20099;-47
2022/01/21 07:12:44;;;;;;;12.68;3.90;;;;;;;2.91;61.94;99830.47;5090678;28;20128;-48
2022/01/21 07:15:18;;;;;;;14.02;3.63;;;;;;;2.97;61.79;99822.22;5091854;28;20024;-46
2022/01/21 07:17:44;;;;;;;13.40;3.80;;;;;;;3.01;62.02;99833.16;5091923;28;20150;-48
2022/01/21 07:20:10;;;;;;;8.77;4.40;;;;;;;3.00;61.26;99847.09;5090389;28;20107;-47
2022/01/21 07:22:36;;;;;;;8.98;3.95;;;;;;;3.03;61.53;99853.78;5091992;28;20028;-48
2022/01/21 07:25:02;;;;;;;13.55;4.05;;;;;;;2.95;61.96;99847.44;5095982;28;20016;-48
2022/01/21 07:27:28;;;;;;;13.30;3.83;;;;;;;2.95;61.66;99846.63;5096048;28;20024;-48
2022/01/21 07:29:54;;;;;;;8.07;3.05;;;;;;;3.02;61.30;99854.72;5095957;28;20126;-47
2022/01/21 07:32:20;;;;;;;13.27;4.13;;;;;;;2.99;61.07;99856.63;5094520;28;20494;-48
2022/01/21 07:34:45;;;;;;;11.82;3.83;;;;;;;3.09;61.27;99835.97;5095891;28;20022;-46
2022/01/21 07:37:11;;;;;;;11.05;4.20;;;;;;;3.29;61.28;99862.06;5095473;28;20044;-48
2022/01/21 07:39:37;;;;;;;12.13;3.47;;;;;;;3.59;60.88;99850.97;5095654;28;20039;-48
2022/01/21 07:42:03;;;;;;;11.18;4.93;;;;;;;3.96;59.47;99866.06;5077592;28;20028;-48
2022/01/21 07:44:29;;;;;;;8.32;3.35;;;;;;;4.34;58.29;99851.59;5094346;28;20069;-47
2022/01/21 07:46:55;;;;;;;18.35;4.25;;;;;;;4.67;58.08;99860.88;5094313;28;20028;-47
2022/01/21 07:49:20;;;;;;;8.88;4.10;;;;;;;5.07;56.63;99857.41;5095602;28;20051;-48
2022/01/21 07:51:46;;;;;;;11.55;4.00;;;;;;;5.52;56.46;99869.03;5094315;28;20063;-47
2022/01/21 07:54:13;;;;;;;8.23;3.55;;;;;;;6.04;54.11;99858.25;5094195;28;20043;-48
2022/01/21 07:56:39;;;;;;;15.90;4.00;;;;;;;5.89;53.57;99869.09;5095489;28;20032;-46
2022/01/21 07:59:07;;;;;;;18.48;4.75;;;;;;;5.99;53.13;99862.09;5095293;28;20027;-49
2022/01/21 08:01:34;;;;;;;18.83;4.68;;;;;;;6.11;54.16;99875.78;5094010;28;20077;-48
2022/01/21 08:04:01;;;;;;;19.58;4.53;;;;;;;6.48;52.53;99867.16;5094008;28;20042;-47
2022/01/21 08:06:27;;;;;;;28.70;4.63;;;;;;;6.34;51.83;99855.41;5095284;28;20077;-47
2022/01/21 08:08:54;;;;;;;12.77;3.15;;;;;;;6.06;52.57;99853.75;5095204;28;20069;-48
2022/01/21 08:11:20;;;;;;;15.35;4.43;;;;;;;6.06;52.09;99858.97;5095143;28;20040;-48
2022/01/21 08:13:46;;;;;;;9.90;5.45;;;;;;;5.93;52.07;99860.03;5095153;28;20099;-49
2022/01/21 08:16:12;;;;;;;23.23;6.28;;;;;;;5.60;53.40;99869.16;5095026;28;20107;-48
2022/01/21 08:18:38;;;;;;;19.80;4.20;;;;;;;5.36;53.84;99875.63;5094954;28;20024;-48
2022/01/21 08:21:04;;;;;;;14.07;4.65;;;;;;;5.17;54.09;99862.59;5093667;28;20035;-47
2022/01/21 08:23:30;;;;;;;33.28;5.13;;;;;;;5.09;55.03;99865.91;5095042;28;20020;-49
2022/01/21 08:25:56;;;;;;;29.75;5.22;;;;;;;5.08;54.52;99871.22;5094889;28;20374;-48
2022/01/21 08:28:21;;;;;;;21.55;5.22;;;;;;;5.02;54.52;99866.56;5094860;28;20020;-48
2022/01/21 08:30:47;;;;;;;30.15;7.15;;;;;;;4.95;54.51;99850.66;5094780;28;20414;-47
2022/01/21 08:33:13;;;;;;;28.98;5.53;;;;;;;4.97;54.91;99865.19;5094175;28;20095;-48
2022/01/21 08:35:39;;;;;;;26.13;5.05;;;;;;;5.06;54.42;99870.53;5094498;28;20140;-47
2022/01/21 08:38:05;;;;;;;22.48;4.88;;;;;;;5.03;54.88;99873.41;5094697;28;20081;-48
2022/01/21 08:40:32;;;;;;;30.65;5.50;;;;;;;5.08;55.34;99879.03;5094495;28;20090;-48
2022/01/21 08:42:58;;;;;;;27.20;6.07;;;;;;;5.08;53.98;99860.81;5094624;28;20028;-46
2022/01/21 08:45:24;;;;;;;24.92;6.50;;;;;;;5.05;54.30;99879.28;5094516;28;20024;-48
2022/01/21 08:47:50;;;;;;;26.35;6.82;;;;;;;5.31;54.35;99888.22;5093148;28;20145;-48
2022/01/21 08:50:18;;;;;;;28.35;5.65;;;;;;;5.62;53.31;99876.84;5093092;28;20036;-48
2022/01/21 08:52:46;;;;;;;53.45;7.88;;;;;;;5.74;52.31;99878.34;5093126;28;20553;-47
2022/01/21 08:55:14;;;;;;;24.17;5.40;;;;;;;5.84;52.10;99889.56;5094322;28;20048;-48
2022/01/21 08:57:42;;;;;;;25.67;6.30;;;;;;;5.94;51.50;99894.75;5094558;28;20405;-48
2022/01/21 09:00:12;;;;;;;30.55;7.80;;;;;;;6.48;52.61;99893.25;5092793;28;20023;-47
2022/01/21 09:02:38;;;;;;;19.20;4.90;;;;;;;6.99;49.33;99878.81;5094245;28;20482;-47
2022/01/21 09:05:04;;;;;;;13.35;4.43;;;;;;;6.96;49.35;99893.94;5092796;28;20401;-48
2022/01/21 09:07:29;;;;;;;9.88;4.15;;;;;;;6.99;48.56;99891.84;5092787;28;20027;-49
2022/01/21 09:09:55;;;;;;;22.20;13.05;;;;;;;6.83;48.44;99899.50;5092691;28;20169;-48
2022/01/21 09:12:21;;;;;;;7.95;4.35;;;;;;;6.57;49.57;99900.19;5092920;28;20382;-47
2022/01/21 09:14:47;;;;;;;15.70;5.25;;;;;;;6.46;50.00;99904.75;5093931;28;20026;-48
2022/01/21 09:17:13;;;;;;;10.30;4.35;;;;;;;6.41;50.24;99886.94;5093870;28;20020;-47
2022/01/21 09:19:39;;;;;;;16.55;5.63;;;;;;;6.79;49.17;99895.56;5093778;28;20035;-47
2022/01/21 09:22:05;;;;;;;15.20;3.92;;;;;;;7.00;48.91;99875.25;5093792;28;20478;-47
2022/01/21 09:24:33;;;;;;;13.82;3.80;;;;;;;7.11;47.86;99884.63;5093762;28;20020;-47
2022/01/21 09:27:04;;;;;;;11.60;3.65;;;;;;;7.39;47.80;99874.13;5093647;28;20030;-47
2022/01/21 09:29:32;;;;;;;9.57;4.25;;;;;;;7.68;47.10;99868.63;5092383;28;20020;-49
2022/01/21 09:31:58;;;;;;;13.13;4.50;;;;;;;8.14;46.72;99865.81;5092238;28;20524;-48
2022/01/21 09:34:25;;;;;;;20.67;4.38;;;;;;;8.63;44.87;99873.91;5092201;28;20401;-48
2022/01/21 09:36:53;;;;;;;12.40;3.80;;;;;;;9.06;45.37;99893.03;5093193;28;20044;-49
2022/01/21 09:39:19;;;;;;;9.02;3.80;;;;;;;9.70;44.46;99890.63;5093668;28;20078;-47
2022/01/21 09:41:45;;;;;;;11.85;4.57;;;;;;;10.22;43.23;99871.00;5093398;28;20517;-48
2022/01/21 09:44:13;;;;;;;16.65;5.00;;;;;;;10.67;41.24;99880.06;5093153;28;20453;-48
2022/01/21 09:46:44;;;;;;;16.83;3.78;;;;;;;10.68;40.23;99894.81;5091363;28;20030;-49
2022/01/21 09:51:54;;;;;;;16.52;3.97;;;;;;;10.61;41.07;99903.56;5093330;28;20077;-47
2022/01/21 09:54:22;;;;;;;18.65;4.15;;;;;;;10.81;40.19;99893.47;5093193;28;20513;-48
2022/01/21 09:56:50;;;;;;;13.82;3.65;;;;;;;11.31;38.46;99868.53;5093160;28;20020;-48
2022/01/21 09:59:20;;;;;;;20.70;3.95;;;;;;;11.20;38.68;99888.13;5092961;28;20119;-47
2022/01/21 10:01:51;;;;;;;13.43;5.07;;;;;;;10.88;39.98;99897.03;5091764;28;20074;-48
2022/01/21 10:04:19;;;;;;;13.88;3.45;;;;;;;10.65;39.26;99878.63;5093009;28;20093;-47
2022/01/21 10:06:48;;;;;;;21.88;3.58;;;;;;;11.09;39.16;99884.13;5092931;28;20438;-48
2022/01/21 10:09:15;;;;;;;12.77;5.00;;;;;;;11.38;38.73;99896.53;5092893;28;20028;-48
2022/01/21 10:11:48;;;;;;;9.45;3.65;;;;;;;11.49;37.75;99876.94;5092866;28;20440;-48
2022/01/21 10:14:25;;;;;;;12.25;4.50;;;;;;;11.14;38.17;99902.78;5092790;28;20397;-48
2022/01/21 10:16:52;;;;;;;19.35;4.00;;;;;;;11.18;39.12;99901.44;5092837;28;20032;-48
2022/01/21 10:19:25;;;;;;;13.65;3.47;;;;;;;12.21;37.40;99880.06;5092571;28;20054;-48
2022/01/21 10:22:25;;;;;;;11.38;3.78;;;;;;;12.87;36.27;99896.69;5092753;28;20079;-48
2022/01/21 10:25:02;;;;;;;13.27;3.30;;;;;;;13.16;34.91;99879.19;5081807;28;20028;-48
2022/01/21 10:27:32;;;;;;;11.07;3.97;;;;;;;12.99;35.15;99889.94;5091312;28;20115;-48
2022/01/21 10:30:00;;;;;;;8.27;3.03;;;;;;;13.13;34.62;99896.19;5092835;28;20432;-49
2022/01/21 10:32:38;;;;;;;11.77;3.83;;;;;;;13.32;34.70;99897.44;5092537;28;20028;-49
2022/01/21 10:35:30;;;;;;;12.20;3.60;;;;;;;13.75;33.99;99889.47;5092440;28;20020;-48
2022/01/21 10:37:59;;;;;;;8.02;2.90;;;;;;;14.15;33.21;99889.75;5092479;28;20123;-49
2022/01/21 10:40:34;;;;;;;10.63;4.45;;;;;;;14.02;32.74;99905.50;5092300;28;20106;-48
2022/01/21 10:43:14;;;;;;;11.88;3.72;;;;;;;13.95;32.19;99892.25;5092659;28;20081;-48
2022/01/21 10:45:57;;;;;;;10.90;3.28;;;;;;;13.59;32.51;99893.19;5092325;28;20047;-48
2022/01/21 10:48:24;;;;;;;9.52;3.03;;;;;;;13.51;32.52;99884.59;5092341;28;20501;-49
2022/01/21 10:51:19;;;;;;;18.83;3.58;;;;;;;13.15;32.65;99888.91;5092202;28;20028;-48
2022/01/21 10:53:45;;;;;;;16.67;3.25;;;;;;;12.72;32.92;99893.31;5092149;28;20023;-47
2022/01/21 10:56:16;;;;;;;11.30;3.40;;;;;;;12.58;33.68;99887.03;5090576;28;20024;-49
2022/01/21 10:58:51;;;;;;;7.32;3.00;;;;;;;12.29;34.56;99901.03;5092084;28;20036;-48
2022/01/21 11:01:22;;;;;;;9.95;3.80;;;;;;;12.24;35.10;99879.72;5090763;28;20521;-48
2022/01/21 11:04:08;;;;;;;13.75;3.35;;;;;;;11.99;35.13;99878.16;5092116;28;20109;-49
2022/01/21 11:06:55;;;;;;;12.85;3.10;;;;;;;12.15;34.63;99877.19;5092056;28;20055;-48
2022/01/21 11:09:26;;;;;;;16.48;3.58;;;;;;;12.05;34.53;99900.28;5092011;28;20476;-49
2022/01/21 11:12:14;;;;;;;10.95;2.92;;;;;;;12.12;34.85;99890.69;5091908;28;20103;-48
2022/01/21 11:14:54;;;;;;;9.45;2.65;;;;;;;12.50;34.24;99897.69;5091925;28;20405;-47
2022/01/21 11:17:20;;;;;;;7.50;2.97;;;;;;;12.14;34.76;99891.31;5091943;28;20024;-49
2022/01/21 11:20:06;;;;;;;11.02;3.10;;;;;;;12.27;35.39;99900.38;5090419;28;20031;-49
2022/01/21 11:23:00;;;;;;;6.30;2.47;;;;;;;12.81;33.68;99886.09;5091892;28;20024;-48
2022/01/21 11:25:46;;;;;;;15.27;3.00;;;;;;;12.62;33.42;99901.47;5090545;28;20530;-47
2022/01/21 11:28:15;;;;;;;10.32;3.15;;;;;;;12.82;34.03;99893.81;5091760;28;20024;-48
2022/01/21 11:30:41;;;;;;;6.53;2.20;;;;;;;12.61;32.86;99893.75;5091740;28;20104;-48
2022/01/21 11:33:06;;;;;;;8.52;2.80;;;;;;;12.40;33.96;99905.84;5091742;28;20048;-49
2022/01/21 11:35:33;;;;;;;8.55;2.97;;;;;;;12.30;34.17;99916.66;5090133;28;20028;-48
2022/01/21 11:38:04;;;;;;;8.07;2.47;;;;;;;12.56;33.63;99904.84;5091738;28;20070;-48
2022/01/21 11:40:31;;;;;;;8.27;2.88;;;;;;;12.79;32.97;99905.53;5090364;28;20028;-50
2022/01/21 11:42:57;;;;;;;8.18;3.65;;;;;;;12.50;33.11;99901.13;5090380;28;20028;-48
2022/01/21 11:50:46;;;;;;;7.45;2.72;;;;;;;13.14;32.24;99897.81;5091988;28;20405;-49
2022/01/21 11:53:12;;;;;;;7.93;3.05;;;;;;;13.65;31.54;99893.44;5090394;28;20103;-48
2022/01/21 11:55:47;;;;;;;12.60;2.97;;;;;;;13.97;31.17;99878.88;5091549;28;20020;-49
2022/01/21 11:58:19;;;;;;;7.10;2.50;;;;;;;13.86;30.85;99897.88;5090259;28;20036;-49
2022/01/21 12:00:50;;;;;;;8.63;2.53;;;;;;;13.46;32.50;99894.91;5090148;28;20039;-50
2022/01/21 12:03:18;;;;;;;8.80;3.53;;;;;;;13.87;31.31;99910.06;5091511;28;20453;-49
2022/01/21 12:05:44;;;;;;;7.95;2.50;;;;;;;14.37;30.82;99908.97;5091438;28;20027;-48
2022/01/21 12:08:10;;;;;;;6.35;2.72;;;;;;;14.39;30.44;99904.31;5090766;28;20032;-49
2022/01/21 12:10:42;;;;;;;5.63;2.08;;;;;;;14.45;29.58;99899.28;5095259;28;20020;-49
2022/01/21 12:13:16;;;;;;;12.38;2.75;;;;;;;14.28;30.32;99891.63;5095183;28;20031;-50
2022/01/21 12:18:20;;;;;;;9.23;2.50;;;;;;;14.09;29.46;99901.09;5095027;28;20047;-50
2022/01/21 12:20:46;;;;;;;8.10;2.17;;;;;;;13.99;29.82;99904.06;5093781;28;20024;-49
2022/01/21 12:23:16;;;;;;;8.05;2.35;;;;;;;14.04;30.81;99894.75;5093668;28;20031;-49
2022/01/21 12:26:19;;;;;;;6.78;2.05;;;;;;;14.30;30.78;99892.25;5093609;28;20035;-49
2022/01/21 12:28:58;;;;;;;8.73;2.42;;;;;;;14.42;29.56;99867.94;5094849;28;20028;-48
2022/01/21 12:31:56;;;;;;;10.95;2.60;;;;;;;14.17;29.90;99884.28;5094838;28;20478;-48
2022/01/21 12:34:22;;;;;;;8.25;2.08;;;;;;;14.02;29.59;99876.47;5086234;28;20040;-48
2022/01/21 12:36:51;;;;;;;11.43;2.55;;;;;;;13.86;30.32;99879.41;5094493;28;20083;-49